Time;durP1;ratioP1;P1;durP2;ratioP2;P2;SDS_P1;SDS_P2;PMS_P1;PMS_P2;Temp;Humidity;BMP_temperature;BMP_pressure;BME280_temperature;BME280_humidity;BME280_pressure;Samples;Min_cycle;Max_cycle;Signal;HPM_P1;HPM_P2
2021/06/22 00:00:13;;;;;;;12.47;5.10;;;14.20;99.90;;;;;;5046524;28;20331;-62
2021/06/22 00:02:43;;;;;;;10.43;5.03;;;14.20;99.90;;;;;;5050046;28;20239;-62
2021/06/22 00:05:13;;;;;;;9.33;4.50;;;14.20;99.90;;;;;;5050528;28;20239;-63
2021/06/22 00:07:41;;;;;;;7.97;4.60;;;14.20;99.90;;;;;;5050349;28;20243;-62
2021/06/22 00:10:11;;;;;;;8.67;4.80;;;14.10;99.90;;;;;;5048775;28;20662;-62
2021/06/22 00:12:42;;;;;;;11.30;4.33;;;14.10;99.90;;;;;;5049617;28;20235;-63
2021/06/22 00:15:13;;;;;;;9.07;4.30;;;14.10;99.90;;;;;;5050516;28;20322;-62
2021/06/22 00:17:42;;;;;;;9.47;4.80;;;14.10;99.90;;;;;;5049718;28;20254;-62
2021/06/22 00:20:14;;;;;;;10.37;4.13;;;14.20;99.90;;;;;;5049336;28;20245;-62
2021/06/22 00:22:43;;;;;;;8.37;4.90;;;14.30;99.90;;;;;;5048202;28;20282;-62
2021/06/22 00:25:13;;;;;;;12.33;4.70;;;14.30;99.90;;;;;;5049113;28;20283;-62
2021/06/22 00:27:42;;;;;;;13.30;5.10;;;14.20;99.90;;;;;;5049165;28;20239;-62
2021/06/22 00:30:11;;;;;;;8.87;4.40;;;14.30;99.90;;;;;;5048540;28;20236;-62
2021/06/22 00:32:39;;;;;;;7.67;4.50;;;14.30;99.90;;;;;;5063730;28;20243;-62
2021/06/22 00:35:10;;;;;;;8.67;4.47;;;14.50;99.90;;;;;;5048768;28;20228;-62
2021/06/22 00:37:41;;;;;;;8.40;4.53;;;14.50;99.90;;;;;;5048223;28;20243;-62
2021/06/22 00:40:11;;;;;;;8.43;4.33;;;14.40;99.90;;;;;;5048107;28;20373;-62
2021/06/22 00:42:41;;;;;;;9.50;4.50;;;14.50;99.90;;;;;;5047263;28;20745;-63
2021/06/22 00:45:10;;;;;;;10.20;4.47;;;14.40;99.90;;;;;;5063851;28;20285;-62
2021/06/22 00:47:40;;;;;;;6.43;4.30;;;14.30;99.90;;;;;;5048191;28;20239;-62
2021/06/22 00:50:09;;;;;;;14.13;4.77;;;14.30;99.90;;;;;;5047789;28;20307;-62
2021/06/22 00:52:48;;;;;;;8.80;4.27;;;14.30;99.90;;;;;;5062995;28;20295;-62
2021/06/22 00:55:29;;;;;;;9.30;4.40;;;14.40;99.90;;;;;;5046955;28;20231;-62
2021/06/22 00:58:17;;;;;;;8.33;3.93;;;14.40;99.90;;;;;;5047941;28;20252;-63
2021/06/22 01:00:47;;;;;;;7.63;4.37;;;14.50;99.90;;;;;;5061033;28;20687;-61
2021/06/22 01:03:15;;;;;;;9.23;4.50;;;14.50;99.90;;;;;;5063476;28;20228;-63
2021/06/22 01:05:46;;;;;;;11.83;3.97;;;14.50;99.90;;;;;;5063391;28;20250;-63
2021/06/22 01:08:15;;;;;;;7.50;4.23;;;14.60;99.90;;;;;;5048675;28;20772;-62
2021/06/22 01:10:45;;;;;;;8.73;4.20;;;14.70;99.90;;;;;;5048338;28;20244;-63
2021/06/22 01:13:13;;;;;;;9.97;4.43;;;14.60;99.90;;;;;;5063141;28;20234;-62
2021/06/22 01:15:42;;;;;;;7.90;4.53;;;14.60;99.90;;;;;;5064222;28;20723;-60
2021/06/22 01:18:10;;;;;;;6.80;3.60;;;14.50;99.90;;;;;;5049336;28;20784;-62
2021/06/22 01:21:02;;;;;;;11.23;4.50;;;14.50;99.90;;;;;;5024586;28;20235;-62
2021/06/22 01:23:39;;;;;;;8.23;4.37;;;14.50;99.90;;;;;;5049043;28;20603;-62
2021/06/22 01:26:10;;;;;;;10.03;4.60;;;14.50;99.90;;;;;;5047718;28;20243;-62
2021/06/22 01:28:38;;;;;;;11.60;4.80;;;14.60;99.90;;;;;;5048687;28;20246;-63
2021/06/22 01:31:14;;;;;;;9.40;4.33;;;14.50;99.90;;;;;;5047886;28;20242;-62
2021/06/22 01:33:47;;;;;;;7.23;4.27;;;14.50;99.90;;;;;;5049051;28;20250;-62
2021/06/22 01:36:26;;;;;;;8.80;4.53;;;14.50;99.90;;;;;;5063571;28;20239;-63
2021/06/22 01:38:54;;;;;;;6.20;4.37;;;14.60;99.90;;;;;;5048554;28;20226;-62
2021/06/22 01:41:23;;;;;;;8.13;4.57;;;14.50;99.90;;;;;;5046292;28;20266;-62
2021/06/22 01:43:52;;;;;;;8.97;4.50;;;14.50;99.90;;;;;;5064150;28;20234;-63
2021/06/22 01:46:20;;;;;;;8.27;4.23;;;14.50;99.90;;;;;;5048658;28;20247;-63
2021/06/22 01:48:50;;;;;;;9.57;4.80;;;14.60;99.90;;;;;;5063333;28;20278;-63
2021/06/22 01:51:20;;;;;;;7.57;3.83;;;14.60;99.90;;;;;;5062842;28;20239;-62
2021/06/22 01:53:52;;;;;;;10.50;4.53;;;14.60;99.90;;;;;;5063642;28;20761;-63
2021/06/22 01:56:22;;;;;;;7.07;4.23;;;14.60;99.90;;;;;;5063773;28;20228;-62
2021/06/22 01:58:51;;;;;;;7.33;4.17;;;14.50;99.90;;;;;;5048347;28;20776;-62
2021/06/22 02:01:37;;;;;;;7.87;3.70;;;14.60;99.90;;;;;;5047600;28;20349;-63
2021/06/22 02:04:19;;;;;;;8.07;4.80;;;14.70;99.90;;;;;;5063444;28;20247;-62
2021/06/22 02:06:50;;;;;;;8.57;4.10;;;14.70;99.90;;;;;;5048271;28;20242;-63
2021/06/22 02:09:40;;;;;;;7.17;4.10;;;14.60;99.90;;;;;;5047223;28;20247;-62
2021/06/22 02:12:15;;;;;;;6.90;4.30;;;14.60;99.90;;;;;;5063228;28;20277;-62
2021/06/22 02:14:43;;;;;;;7.63;3.70;;;14.70;99.90;;;;;;5063269;28;20292;-62
2021/06/22 02:17:12;;;;;;;9.30;4.40;;;14.80;99.90;;;;;;5063471;28;20232;-62
2021/06/22 02:19:41;;;;;;;5.50;4.40;;;14.80;99.90;;;;;;5062454;28;20242;-63
2021/06/22 02:22:17;;;;;;;6.87;3.97;;;14.70;99.90;;;;;;5045839;28;20270;-62
2021/06/22 02:24:55;;;;;;;9.77;4.30;;;14.60;99.90;;;;;;5062935;28;20638;-62
2021/06/22 02:27:29;;;;;;;9.60;4.37;;;14.50;99.90;;;;;;5047931;28;20243;-62
2021/06/22 02:30:00;;;;;;;8.37;4.70;;;14.70;99.90;;;;;;5045660;28;20242;-63
2021/06/22 02:32:30;;;;;;;7.87;4.30;;;14.70;99.90;;;;;;5062576;28;20289;-63
2021/06/22 02:35:06;;;;;;;6.50;4.00;;;14.70;99.90;;;;;;5046321;28;20235;-62
2021/06/22 02:37:37;;;;;;;9.47;4.10;;;14.90;99.90;;;;;;5047790;28;20240;-62
2021/06/22 02:40:08;;;;;;;8.37;5.13;;;14.90;99.90;;;;;;5061504;28;20289;-62
2021/06/22 02:42:36;;;;;;;8.57;4.03;;;14.80;99.90;;;;;;5047306;28;20231;-62
2021/06/22 02:45:14;;;;;;;6.40;4.23;;;14.70;99.90;;;;;;5047471;28;20224;-62
2021/06/22 02:47:42;;;;;;;6.73;3.97;;;14.70;99.90;;;;;;5047505;28;20713;-61
2021/06/22 02:50:12;;;;;;;8.53;4.80;;;14.70;99.90;;;;;;5062260;28;20236;-62
2021/06/22 02:52:43;;;;;;;9.27;4.60;;;14.90;99.90;;;;;;5062644;28;20243;-62
2021/06/22 02:55:19;;;;;;;10.40;4.43;;;14.80;99.90;;;;;;5047422;28;20235;-62
2021/06/22 02:57:59;;;;;;;7.17;4.50;;;15.00;99.90;;;;;;5047418;28;20235;-62
2021/06/22 03:00:31;;;;;;;7.63;4.50;;;14.90;99.90;;;;;;5046237;28;20271;-62
2021/06/22 03:03:03;;;;;;;7.57;4.40;;;14.90;99.90;;;;;;5062679;28;20719;-62
2021/06/22 03:05:35;;;;;;;6.17;4.37;;;14.90;99.90;;;;;;5062601;28;20236;-62
2021/06/22 03:08:05;;;;;;;9.23;5.03;;;14.80;99.90;;;;;;5045751;28;20235;-62
2021/06/22 03:10:36;;;;;;;7.13;4.13;;;14.70;99.90;;;;;;5061387;28;20710;-62
2021/06/22 03:13:04;;;;;;;9.77;4.47;;;14.70;99.90;;;;;;5045558;28;20246;-62
2021/06/22 03:15:33;;;;;;;8.07;4.30;;;14.60;99.90;;;;;;5062303;28;20322;-62
2021/06/22 03:18:02;;;;;;;6.37;4.60;;;14.60;99.90;;;;;;5062513;28;20234;-63
2021/06/22 03:20:35;;;;;;;7.93;4.53;;;14.60;99.90;;;;;;5060636;28;20236;-63
2021/06/22 03:23:09;;;;;;;7.63;4.30;;;14.60;99.90;;;;;;5062172;28;20570;-62
2021/06/22 03:25:38;;;;;;;9.00;4.57;;;14.60;99.90;;;;;;5046653;28;20239;-62
2021/06/22 03:28:06;;;;;;;10.03;4.90;;;14.50;99.90;;;;;;5046681;28;20227;-62
2021/06/22 03:30:44;;;;;;;7.60;4.20;;;14.60;99.90;;;;;;5045473;28;20227;-62
2021/06/22 03:33:12;;;;;;;6.77;4.40;;;14.70;99.90;;;;;;5046925;28;20247;-62
2021/06/22 03:35:40;;;;;;;8.50;4.40;;;14.80;99.90;;;;;;5047440;28;20297;-63
2021/06/22 03:38:10;;;;;;;8.13;4.63;;;14.70;99.90;;;;;;5051017;28;20239;-62
2021/06/22 03:40:38;;;;;;;8.23;4.60;;;14.70;99.90;;;;;;5065329;28;20262;-63
2021/06/22 03:43:07;;;;;;;7.30;4.40;;;14.70;99.90;;;;;;5050616;28;20642;-62
2021/06/22 03:45:41;;;;;;;8.30;4.60;;;14.80;99.90;;;;;;5065842;28;20239;-62
2021/06/22 03:48:10;;;;;;;7.07;4.40;;;14.70;99.90;;;;;;5050788;28;20595;-63
2021/06/22 03:50:40;;;;;;;9.40;4.30;;;14.70;99.90;;;;;;5048323;28;20706;-62
2021/06/22 03:53:10;;;;;;;9.13;4.57;;;14.70;99.90;;;;;;5065396;28;20646;-62
2021/06/22 03:55:39;;;;;;;10.90;4.50;;;14.70;99.90;;;;;;5050542;28;20253;-63
2021/06/22 03:58:15;;;;;;;10.63;4.80;;;14.60;99.90;;;;;;5065408;28;20594;-62
2021/06/22 04:01:02;;;;;;;10.23;4.57;;;14.60;99.90;;;;;;5064868;28;20710;-62
2021/06/22 04:03:37;;;;;;;9.00;4.67;;;14.60;99.90;;;;;;5065399;28;20432;-62
2021/06/22 04:06:24;;;;;;;8.60;4.40;;;14.50;99.90;;;;;;5049756;28;20327;-62
2021/06/22 04:08:59;;;;;;;10.37;4.77;;;14.60;99.90;;;;;;5065436;28;20235;-62
2021/06/22 04:11:28;;;;;;;8.70;4.27;;;14.60;99.90;;;;;;5064035;28;20240;-62
2021/06/22 04:13:58;;;;;;;10.80;4.60;;;14.50;99.90;;;;;;5049561;28;20241;-62
2021/06/22 04:16:33;;;;;;;12.93;4.50;;;14.50;99.90;;;;;;5065085;28;20244;-63
2021/06/22 04:19:03;;;;;;;8.03;4.60;;;14.50;99.90;;;;;;5064294;28;20266;-63
2021/06/22 04:21:36;;;;;;;8.47;4.50;;;14.50;99.90;;;;;;5047871;28;20236;-62
2021/06/22 04:24:07;;;;;;;11.23;4.27;;;14.50;99.90;;;;;;5049242;28;20270;-62
2021/06/22 04:26:36;;;;;;;7.80;4.40;;;14.50;99.90;;;;;;5064912;28;20242;-63
2021/06/22 04:29:06;;;;;;;12.23;5.40;;;14.60;99.90;;;;;;5049237;28;20603;-63
2021/06/22 04:31:34;;;;;;;9.30;4.43;;;14.50;99.90;;;;;;5049696;28;20236;-62
2021/06/22 04:34:02;;;;;;;11.83;5.10;;;14.60;99.90;;;;;;5049514;28;20318;-62
2021/06/22 04:36:30;;;;;;;11.20;4.67;;;14.70;99.90;;;;;;5028271;28;20661;-63
2021/06/22 04:38:59;;;;;;;9.93;4.50;;;14.80;99.90;;;;;;5029565;28;20290;-62
2021/06/22 04:41:28;;;;;;;9.90;4.93;;;14.80;99.90;;;;;;5048246;28;20326;-62
2021/06/22 04:43:56;;;;;;;11.37;4.67;;;14.90;99.90;;;;;;5049345;28;20228;-63
2021/06/22 04:46:24;;;;;;;10.77;4.00;;;15.00;99.90;;;;;;5049291;28;20319;-63
2021/06/22 04:48:53;;;;;;;9.90;4.40;;;15.10;99.90;;;;;;5049046;28;20224;-63
2021/06/22 04:51:21;;;;;;;8.67;3.93;;;15.20;99.90;;;;;;5048284;28;20256;-62
2021/06/22 04:53:49;;;;;;;8.97;4.07;;;15.20;99.90;;;;;;5053415;28;20243;-63
2021/06/22 04:56:21;;;;;;;10.80;4.30;;;15.30;99.90;;;;;;5047268;28;20703;-63
2021/06/22 04:58:52;;;;;;;10.83;4.37;;;15.20;99.90;;;;;;5049222;28;20699;-63
2021/06/22 05:01:20;;;;;;;12.90;4.50;;;15.20;99.90;;;;;;5048245;28;20262;-62
2021/06/22 05:03:48;;;;;;;15.73;4.73;;;15.30;99.90;;;;;;5048806;28;20232;-62
2021/06/22 05:06:16;;;;;;;11.23;4.07;;;15.40;99.90;;;;;;5048629;28;20231;-62
2021/06/22 05:08:44;;;;;;;9.67;3.90;;;15.40;99.90;;;;;;5048306;28;20286;-62
2021/06/22 05:11:12;;;;;;;12.27;4.47;;;15.40;99.90;;;;;;5048594;28;20245;-63
2021/06/22 05:13:42;;;;;;;13.47;4.70;;;15.50;99.90;;;;;;5046349;28;20246;-62
2021/06/22 05:16:11;;;;;;;9.90;3.80;;;15.60;99.90;;;;;;5061291;28;20274;-63
2021/06/22 05:18:40;;;;;;;10.93;4.33;;;15.60;99.90;;;;;;5044187;28;20240;-62
2021/06/22 05:21:08;;;;;;;9.63;4.27;;;15.60;99.90;;;;;;5047402;28;20345;-63
2021/06/22 05:23:36;;;;;;;11.50;4.33;;;15.70;99.90;;;;;;5048616;28;20735;-62
2021/06/22 05:26:04;;;;;;;11.30;4.20;;;15.80;99.90;;;;;;5048335;28;20251;-62
2021/06/22 05:28:33;;;;;;;11.33;3.83;;;16.00;99.90;;;;;;5047672;28;20592;-62
2021/06/22 05:31:01;;;;;;;9.17;3.50;;;16.10;99.90;;;;;;5045612;28;20609;-62
2021/06/22 05:33:30;;;;;;;14.40;3.93;;;16.30;99.90;;;;;;5026157;28;20315;-62
2021/06/22 05:35:59;;;;;;;10.98;4.32;;;16.40;99.90;;;;;;5040223;28;20440;-62
2021/06/22 05:38:27;;;;;;;10.03;3.57;;;16.70;99.90;;;;;;5046750;28;20313;-62
2021/06/22 05:40:55;;;;;;;13.10;3.30;;;17.00;99.90;;;;;;5045910;28;20247;-62
2021/06/22 05:43:23;;;;;;;11.63;4.17;;;17.00;99.90;;;;;;5046287;28;20232;-62
2021/06/22 05:45:51;;;;;;;12.23;3.80;;;17.20;99.90;;;;;;5047536;28;20263;-62
2021/06/22 05:48:20;;;;;;;9.07;3.30;;;17.30;99.90;;;;;;5048051;28;20236;-62
2021/06/22 05:50:49;;;;;;;9.50;3.30;;;17.50;99.90;;;;;;5062900;28;20591;-62
2021/06/22 05:53:17;;;;;;;12.37;3.87;;;17.30;99.90;;;;;;5047596;28;20247;-63
2021/06/22 05:55:46;;;;;;;7.53;3.43;;;17.50;99.90;;;;;;5047737;28;20705;-62
2021/06/22 05:58:15;;;;;;;10.57;3.53;;;17.70;99.90;;;;;;5047343;28;20236;-62
2021/06/22 06:00:43;;;;;;;11.03;3.17;;;18.00;99.90;;;;;;5047562;28;20239;-62
2021/06/22 06:03:14;;;;;;;9.73;3.20;;;18.20;99.90;;;;;;5047832;28;20263;-62
2021/06/22 06:05:42;;;;;;;9.00;3.10;;;18.30;99.90;;;;;;5047794;28;20290;-62
2021/06/22 06:08:12;;;;;;;6.40;2.90;;;18.30;99.90;;;;;;5048233;28;20314;-62
2021/06/22 06:10:40;;;;;;;8.70;3.20;;;18.40;99.90;;;;;;5047198;28;20318;-61
2021/06/22 06:13:08;;;;;;;9.00;3.00;;;18.70;99.90;;;;;;5047573;28;20231;-62
2021/06/22 06:15:37;;;;;;;10.03;3.50;;;18.80;99.90;;;;;;5047552;28;20240;-62
2021/06/22 06:18:05;;;;;;;9.40;2.90;;;18.80;99.90;;;;;;5048201;28;20290;-63
2021/06/22 06:20:34;;;;;;;8.00;2.60;;;19.00;99.90;;;;;;5046504;28;20243;-62
2021/06/22 06:23:02;;;;;;;8.50;3.30;;;18.90;99.90;;;;;;5047399;28;20625;-62
2021/06/22 06:25:31;;;;;;;9.07;2.90;;;18.60;99.90;;;;;;5047610;28;20505;-62
2021/06/22 06:28:02;;;;;;;11.40;3.10;;;18.20;99.90;;;;;;5047664;28;20236;-62
2021/06/22 06:30:31;;;;;;;11.60;3.00;;;17.90;99.90;;;;;;5046558;28;20324;-62
2021/06/22 06:32:59;;;;;;;9.33;3.23;;;17.70;99.90;;;;;;5047566;28;20240;-62
2021/06/22 06:35:27;;;;;;;10.27;3.10;;;17.50;99.90;;;;;;5046987;28;20749;-62
2021/06/22 06:37:56;;;;;;;8.93;3.10;;;17.40;99.90;;;;;;5047357;28;20257;-62
2021/06/22 06:40:24;;;;;;;7.23;2.67;;;17.20;99.90;;;;;;5046375;28;20255;-62
2021/06/22 06:42:54;;;;;;;9.57;3.63;;;17.20;99.90;;;;;;5047100;28;20259;-62
2021/06/22 06:45:22;;;;;;;9.10;2.97;;;17.30;99.90;;;;;;5047261;28;20243;-62
2021/06/22 06:47:51;;;;;;;10.07;3.47;;;17.40;99.90;;;;;;5047221;28;20604;-62
2021/06/22 06:50:19;;;;;;;9.63;3.07;;;17.40;99.90;;;;;;5046568;28;20755;-60
2021/06/22 06:52:48;;;;;;;5.13;2.83;;;17.30;99.90;;;;;;5046807;28;20244;-62
2021/06/22 06:55:26;;;;;;;10.67;3.33;;;17.20;99.90;;;;;;5046901;28;20271;-62
2021/06/22 06:57:59;;;;;;;6.00;2.33;;;17.10;99.90;;;;;;5047241;28;20590;-62
2021/06/22 07:00:29;;;;;;;11.07;3.30;;;16.90;99.90;;;;;;5046279;28;20237;-62
2021/06/22 07:02:57;;;;;;;8.37;3.20;;;16.80;99.90;;;;;;5046648;28;20315;-62
2021/06/22 07:05:26;;;;;;;10.03;3.10;;;16.80;99.90;;;;;;5061946;28;20270;-62
2021/06/22 07:07:55;;;;;;;8.50;3.50;;;16.80;99.90;;;;;;5046745;28;20263;-62
2021/06/22 07:10:23;;;;;;;9.03;3.30;;;16.90;99.90;;;;;;5044656;28;20243;-62
2021/06/22 07:12:53;;;;;;;10.00;3.20;;;17.00;99.90;;;;;;5046483;28;20242;-63
2021/06/22 07:15:22;;;;;;;12.20;3.43;;;17.00;99.90;;;;;;5046172;28;20237;-62
2021/06/22 07:17:52;;;;;;;10.83;3.23;;;17.10;99.90;;;;;;5046937;28;20253;-62
2021/06/22 07:20:20;;;;;;;11.17;3.50;;;17.30;99.90;;;;;;5046182;28;20251;-62
2021/06/22 07:22:48;;;;;;;6.40;3.00;;;17.60;99.90;;;;;;5046340;28;20247;-62
2021/06/22 07:25:18;;;;;;;9.13;3.10;;;17.90;99.90;;;;;;5046556;28;20319;-62
2021/06/22 07:27:48;;;;;;;7.73;3.20;;;17.80;99.90;;;;;;5046699;28;20265;-62
2021/06/22 07:30:17;;;;;;;10.23;3.90;;;17.70;99.90;;;;;;5046261;28;20689;-62
2021/06/22 07:32:46;;;;;;;7.83;3.17;;;17.60;99.90;;;;;;5046235;28;20269;-62
2021/06/22 07:35:15;;;;;;;11.37;4.17;;;17.50;99.90;;;;;;5046784;28;20263;-63
2021/06/22 07:37:43;;;;;;;8.20;3.67;;;17.30;99.90;;;;;;5046667;28;20540;-62
2021/06/22 07:40:13;;;;;;;6.13;3.23;;;17.20;99.90;;;;;;5046345;28;20346;-62
2021/06/22 07:42:41;;;;;;;10.70;3.83;;;17.20;99.90;;;;;;5046328;28;20258;-62
2021/06/22 07:45:11;;;;;;;6.87;2.97;;;17.10;99.90;;;;;;5046536;28;20613;-62
2021/06/22 07:47:39;;;;;;;8.40;3.33;;;17.10;99.90;;;;;;5046793;28;20228;-62
2021/06/22 07:50:11;;;;;;;8.73;4.00;;;17.20;99.90;;;;;;5045430;28;20592;-62
2021/06/22 07:52:39;;;;;;;9.10;3.40;;;17.30;99.90;;;;;;5045746;28;20257;-62
2021/06/22 07:55:13;;;;;;;8.20;3.60;;;17.40;99.90;;;;;;5045044;28;20605;-62
2021/06/22 07:57:43;;;;;;;10.20;3.53;;;17.50;99.90;;;;;;5044653;28;20573;-62
2021/06/22 08:00:23;;;;;;;7.43;3.43;;;17.70;99.90;;;;;;5046051;28;20255;-63
2021/06/22 08:02:53;;;;;;;9.60;3.60;;;17.80;99.90;;;;;;5046157;28;20239;-62
2021/06/22 08:05:22;;;;;;;8.63;3.13;;;18.10;99.90;;;;;;5046576;28;20229;-62
2021/06/22 08:07:51;;;;;;;6.40;3.83;;;18.30;99.90;;;;;;5046088;28;20316;-62
2021/06/22 08:10:20;;;;;;;9.50;3.30;;;19.10;99.90;;;;;;5046169;28;20451;-62
2021/06/22 08:12:48;;;;;;;7.23;3.40;;;19.30;99.90;;;;;;5046231;28;20323;-62
2021/06/22 08:15:17;;;;;;;10.17;3.27;;;19.80;99.90;;;;;;5046589;28;20262;-62
2021/06/22 08:17:46;;;;;;;6.67;2.90;;;20.60;99.90;;;;;;5052421;28;20332;-61
2021/06/22 08:20:14;;;;;;;9.43;3.20;;;21.20;99.90;;;;;;5052656;28;20653;-63
2021/06/22 08:22:44;;;;;;;8.17;3.07;;;20.80;99.90;;;;;;5064023;28;20756;-62
2021/06/22 08:25:13;;;;;;;10.90;3.00;;;20.10;99.90;;;;;;5049149;28;20234;-62
2021/06/22 08:27:41;;;;;;;9.57;3.03;;;19.40;99.90;;;;;;5049465;28;20558;-62
2021/06/22 08:30:10;;;;;;;10.10;2.90;;;18.90;99.90;;;;;;5049854;28;20248;-62
2021/06/22 08:32:38;;;;;;;10.17;3.20;;;18.60;99.90;;;;;;5050065;28;20249;-62
2021/06/22 08:35:08;;;;;;;8.60;3.20;;;18.60;99.90;;;;;;5049319;28;20241;-62
2021/06/22 08:37:36;;;;;;;7.33;3.00;;;18.50;99.90;;;;;;5033870;28;20276;-62
2021/06/22 08:40:08;;;;;;;6.83;2.80;;;18.50;99.90;;;;;;5048912;28;20239;-62
2021/06/22 08:42:39;;;;;;;6.60;2.80;;;18.60;99.90;;;;;;5049815;28;20269;-61
2021/06/22 08:45:10;;;;;;;5.37;2.50;;;18.80;99.90;;;;;;5049903;28;20299;-62
2021/06/22 08:47:39;;;;;;;6.97;2.70;;;19.90;99.90;;;;;;5049591;28;20271;-62
2021/06/22 08:50:08;;;;;;;8.40;3.17;;;20.50;99.90;;;;;;5049077;28;20568;-62
2021/06/22 08:52:37;;;;;;;6.77;2.73;;;20.60;99.90;;;;;;5049441;28;20641;-62
2021/06/22 08:55:09;;;;;;;6.93;2.40;;;20.40;99.90;;;;;;5049559;28;20246;-62
2021/06/22 08:57:37;;;;;;;5.93;2.90;;;20.30;99.90;;;;;;5049663;28;20368;-63
2021/06/22 09:00:06;;;;;;;6.50;2.60;;;20.70;99.90;;;;;;5048448;28;20458;-62
2021/06/22 09:02:37;;;;;;;5.70;2.93;;;20.90;99.90;;;;;;5048815;28;20705;-62
2021/06/22 09:05:06;;;;;;;8.93;3.47;;;21.30;99.90;;;;;;5048666;28;20325;-62
2021/06/22 09:07:44;;;;;;;8.33;3.47;;;21.30;99.90;;;;;;5048040;28;20231;-62
2021/06/22 09:10:25;;;;;;;6.80;3.27;;;20.90;99.90;;;;;;5044048;28;20234;-62
2021/06/22 09:12:54;;;;;;;8.50;2.70;;;20.60;99.90;;;;;;5044508;28;20263;-62
2021/06/22 09:15:29;;;;;;;6.07;2.90;;;20.20;99.90;;;;;;5046625;28;20234;-62
2021/06/22 09:17:59;;;;;;;7.37;2.97;;;20.10;99.90;;;;;;5049184;28;20237;-62
2021/06/22 09:20:36;;;;;;;9.57;3.27;;;20.70;99.90;;;;;;5046804;28;20615;-62
2021/06/22 09:23:11;;;;;;;8.10;3.00;;;21.20;99.90;;;;;;5048073;28;20245;-62
2021/06/22 09:25:41;;;;;;;7.57;3.00;;;21.00;99.90;;;;;;5048623;28;20238;-62
2021/06/22 09:28:09;;;;;;;8.17;2.90;;;20.80;99.90;;;;;;5064117;28;20703;-62
2021/06/22 09:30:51;;;;;;;10.50;3.20;;;20.60;99.90;;;;;;5046198;28;20247;-62
2021/06/22 09:33:24;;;;;;;8.10;2.97;;;20.60;99.90;;;;;;5044281;28;20795;-61
2021/06/22 09:35:58;;;;;;;10.20;3.13;;;20.60;99.90;;;;;;5045468;28;20343;-62
2021/06/22 09:38:32;;;;;;;7.40;3.00;;;20.60;99.90;;;;;;5045536;28;20277;-62
2021/06/22 09:41:14;;;;;;;6.77;2.73;;;20.60;99.90;;;;;;5045436;28;20274;-62
2021/06/22 09:43:46;;;;;;;9.23;3.03;;;20.50;99.90;;;;;;5045572;28;20767;-62
2021/06/22 09:46:16;;;;;;;8.63;3.53;;;20.50;99.90;;;;;;5028948;28;20730;-62
2021/06/22 09:48:58;;;;;;;7.17;3.03;;;20.80;99.90;;;;;;5028495;28;20243;-61
2021/06/22 09:51:31;;;;;;;8.10;3.43;;;21.00;99.90;;;;;;5044280;28;20652;-62
2021/06/22 09:54:19;;;;;;;9.03;2.90;;;20.80;99.90;;;;;;5045545;28;20242;-62
2021/06/22 09:56:58;;;;;;;5.90;2.50;;;20.70;99.90;;;;;;5025604;28;20600;-61
2021/06/22 09:59:28;;;;;;;5.03;2.33;;;21.10;99.90;;;;;;5027989;28;20250;-62
2021/06/22 10:02:10;;;;;;;8.67;3.07;;;21.90;99.90;;;;;;5044709;28;20282;-61
2021/06/22 10:04:42;;;;;;;6.17;2.50;;;22.30;99.90;;;;;;5044108;28;20243;-62
2021/06/22 10:07:13;;;;;;;7.67;2.93;;;22.20;99.90;;;;;;5045592;28;20599;-62
2021/06/22 10:09:41;;;;;;;6.00;2.80;;;22.30;99.90;;;;;;5043674;28;20258;-61
2021/06/22 10:12:13;;;;;;;6.27;2.60;;;23.50;99.90;;;;;;5044863;28;20707;-61
2021/06/22 10:14:44;;;;;;;3.87;2.03;;;23.60;99.90;;;;;;5043619;28;20325;-62
2021/06/22 10:17:15;;;;;;;8.80;2.77;;;23.40;99.90;;;;;;5045187;28;20245;-61
2021/06/22 10:19:44;;;;;;;5.50;2.30;;;22.80;99.90;;;;;;5044417;28;20247;-62
2021/06/22 10:22:14;;;;;;;7.30;2.63;;;22.60;99.90;;;;;;5045148;28;20767;-61
2021/06/22 10:24:44;;;;;;;8.87;2.47;;;22.70;99.90;;;;;;5044619;28;20232;-62
2021/06/22 10:27:15;;;;;;;7.07;2.60;;;22.50;99.90;;;;;;5059958;28;20662;-62
2021/06/22 10:29:45;;;;;;;6.27;2.30;;;22.90;99.90;;;;;;5014454;28;20708;-61
2021/06/22 10:32:14;;;;;;;5.60;2.00;;;22.90;99.90;;;;;;5005473;28;20239;-61
2021/06/22 10:34:46;;;;;;;8.00;2.50;;;22.20;99.90;;;;;;5010127;28;20323;-62
2021/06/22 10:37:18;;;;;;;5.37;2.33;;;21.80;99.90;;;;;;5028238;28;20775;-61
2021/06/22 10:39:51;;;;;;;7.43;2.20;;;21.40;99.90;;;;;;5017957;28;20266;-62
2021/06/22 10:42:21;;;;;;;6.60;2.00;;;21.20;99.90;;;;;;5004672;28;20873;-61
2021/06/22 10:44:51;;;;;;;7.83;2.50;;;21.10;99.90;;;;;;5010759;28;20331;-62
2021/06/22 10:47:25;;;;;;;7.63;2.30;;;21.10;99.90;;;;;;5024775;28;20300;-62
2021/06/22 10:50:08;;;;;;;7.17;2.30;;;21.20;99.90;;;;;;5023281;28;20244;-62
2021/06/22 10:52:57;;;;;;;8.87;2.33;;;21.00;99.90;;;;;;5021265;28;20250;-60
2021/06/22 10:55:56;;;;;;;9.17;2.23;;;20.50;99.90;;;;;;5041002;28;20268;-62
2021/06/22 10:58:26;;;;;;;6.50;2.10;;;20.90;99.90;;;;;;5044428;28;20239;-62
2021/06/22 11:01:12;;;;;;;7.27;2.20;;;21.20;99.90;;;;;;5043776;28;20652;-61
2021/06/22 11:03:41;;;;;;;6.50;2.00;;;21.60;99.90;;;;;;5044166;28;20261;-61
2021/06/22 11:06:26;;;;;;;8.20;2.47;;;21.60;99.90;;;;;;5043662;28;20246;-62
2021/06/22 11:08:54;;;;;;;6.87;2.27;;;21.50;99.90;;;;;;5043827;28;20314;-61
2021/06/22 11:11:24;;;;;;;7.10;1.97;;;21.30;99.90;;;;;;5042980;28;20828;-61
2021/06/22 11:13:57;;;;;;;6.37;2.10;;;21.50;99.90;;;;;;5043130;28;20251;-61
2021/06/22 11:16:30;;;;;;;8.47;2.80;;;22.30;99.90;;;;;;5042938;28;20235;-61
2021/06/22 11:19:08;;;;;;;8.27;2.20;;;22.50;99.90;;;;;;5043068;28;20253;-62
2021/06/22 11:21:38;;;;;;;9.07;2.60;;;22.00;99.90;;;;;;5042238;28;20296;-62
2021/06/22 11:24:09;;;;;;;7.43;2.43;;;21.70;99.90;;;;;;5043316;28;20254;-61
2021/06/22 11:27:00;;;;;;;8.17;2.07;;;21.70;99.90;;;;;;5043968;28;20932;-62
2021/06/22 11:29:50;;;;;;;8.73;2.57;;;21.70;99.90;;;;;;5041774;28;20239;-62
2021/06/22 11:32:39;;;;;;;6.60;2.30;;;21.70;99.90;;;;;;5043460;28;20691;-62
2021/06/22 11:35:12;;;;;;;8.10;2.43;;;21.60;99.90;;;;;;5043394;28;20239;-61
2021/06/22 11:37:44;;;;;;;6.10;2.30;;;21.70;99.90;;;;;;5043342;28;20719;-61
2021/06/22 11:40:16;;;;;;;7.17;2.27;;;21.90;99.90;;;;;;5038808;28;20293;-61
2021/06/22 11:42:45;;;;;;;9.90;2.40;;;21.80;99.90;;;;;;5043024;28;20242;-62
2021/06/22 11:45:24;;;;;;;8.50;2.57;;;21.50;99.90;;;;;;5043080;28;20238;-61
2021/06/22 11:47:59;;;;;;;10.10;3.00;;;21.30;99.90;;;;;;5039079;28;20347;-62
2021/06/22 11:50:47;;;;;;;7.70;2.40;;;21.10;99.90;;;;;;5040299;28;20737;-62
2021/06/22 11:53:17;;;;;;;8.33;2.60;;;21.10;99.90;;;;;;5036581;28;20265;-62
2021/06/22 11:55:51;;;;;;;5.33;2.33;;;21.10;99.90;;;;;;5042104;28;20774;-62
2021/06/22 11:58:25;;;;;;;7.17;2.13;;;22.10;99.90;;;;;;5045363;28;20237;-61
2021/06/22 12:00:57;;;;;;;7.67;2.30;;;23.00;99.90;;;;;;5045085;28;20303;-61
2021/06/22 12:03:27;;;;;;;8.80;2.00;;;22.90;99.90;;;;;;5045284;28;20561;-61
2021/06/22 12:06:12;;;;;;;10.17;2.30;;;22.60;99.90;;;;;;5030542;28;20246;-61
2021/06/22 12:08:42;;;;;;;5.67;2.03;;;22.40;99.90;;;;;;5042842;28;20232;-62
2021/06/22 12:11:13;;;;;;;7.90;2.50;;;22.40;99.90;;;;;;5047178;28;20244;-62
2021/06/22 12:13:47;;;;;;;7.60;2.70;;;21.90;99.90;;;;;;5031444;28;20236;-62
2021/06/22 12:16:26;;;;;;;7.70;2.80;;;21.40;99.90;;;;;;5045243;28;20231;-61
2021/06/22 12:18:56;;;;;;;8.00;2.50;;;21.10;99.90;;;;;;5047350;28;20256;-61
2021/06/22 12:21:26;;;;;;;6.47;2.20;;;21.00;99.90;;;;;;5046725;28;20742;-62
2021/06/22 12:24:01;;;;;;;5.50;2.53;;;20.90;99.90;;;;;;5047091;28;20322;-62
2021/06/22 12:26:29;;;;;;;7.60;2.50;;;20.80;99.90;;;;;;5046521;28;20280;-61
2021/06/22 12:28:59;;;;;;;8.00;2.23;;;20.70;99.90;;;;;;5047062;28;20797;-62
2021/06/22 12:31:28;;;;;;;11.90;2.50;;;20.90;99.90;;;;;;5046700;28;20726;-62
2021/06/22 12:34:02;;;;;;;9.53;2.67;;;21.20;99.90;;;;;;5047261;28;20572;-61
2021/06/22 12:36:36;;;;;;;7.17;2.60;;;21.20;99.90;;;;;;5046581;28;20306;-62
2021/06/22 12:39:06;;;;;;;7.90;2.47;;;21.30;99.90;;;;;;5046749;28;20226;-62
2021/06/22 12:41:35;;;;;;;5.83;2.33;;;21.30;99.90;;;;;;5046784;28;20750;-62
2021/06/22 12:44:06;;;;;;;11.50;2.60;;;21.60;99.90;;;;;;5046993;28;20262;-62
2021/06/22 12:46:37;;;;;;;5.37;2.50;;;21.60;99.90;;;;;;5026805;28;20294;-62
2021/06/22 12:49:09;;;;;;;9.70;2.70;;;21.30;99.90;;;;;;5026586;28;20243;-62
2021/06/22 12:51:39;;;;;;;7.20;2.27;;;21.00;99.90;;;;;;5046429;28;20668;-62
2021/06/22 12:54:25;;;;;;;2.10;1.60;;;21.20;99.90;;;;;;3201841;28;10002626;-61
2021/06/22 12:56:56;;;;;;;5.63;2.10;;;20.90;99.90;;;;;;3653864;28;10002167;-61
2021/06/22 12:59:26;;;;;;;5.73;2.27;;;20.80;99.90;;;;;;5046175;28;20324;-62
2021/06/22 13:02:05;;;;;;;6.27;2.10;;;20.80;99.90;;;;;;5046706;28;20238;-62
2021/06/22 13:04:40;;;;;;;5.73;2.03;;;20.70;99.90;;;;;;5042156;28;20766;-62